createdAt,value
2016-05-25T00:00:12.625Z,99.51
2016-05-25T00:01:12.613Z,99.89
2016-05-25T00:02:12.583Z,99.66
2016-05-25T00:03:12.555Z,99.37
2016-05-25T00:04:12.527Z,99.32
2016-05-25T00:05:12.514Z,99.7
2016-05-25T00:06:12.486Z,99.32
2016-05-25T00:07:12.457Z,99.46
2016-05-25T00:08:12.444Z,99.18
2016-05-25T00:09:12.416Z,99.75
2016-05-25T00:10:12.387Z,99.27
2016-05-25T00:11:12.374Z,99.75
2016-05-25T00:12:12.345Z,99.18
2016-05-25T00:13:12.316Z,99.37
2016-05-25T00:14:12.304Z,98.8
2016-05-25T00:15:12.275Z,98.99
2016-05-25T00:16:12.357Z,98.8
2016-05-25T00:17:12.234Z,99.08
2016-05-25T00:18:12.205Z,98.65
2016-05-25T00:19:12.176Z,99.27
2016-05-25T00:20:12.164Z,99.08
2016-05-25T00:21:12.135Z,99.08
2016-05-25T00:22:12.106Z,98.99
2016-05-25T00:23:12.093Z,98.8
2016-05-25T00:24:12.065Z,99.13
2016-05-25T00:25:12.037Z,98.94
2016-05-25T00:26:12.023Z,99.37
2016-05-25T00:27:11.995Z,99.75
2016-05-25T00:28:11.967Z,98.75
2016-05-25T00:29:11.954Z,98.9
2016-05-25T00:30:11.925Z,98.56
2016-05-25T00:31:12.381Z,98.65
2016-05-25T00:32:11.883Z,98.94
2016-05-25T00:33:11.855Z,98.94
2016-05-25T00:34:11.842Z,98.8
2016-05-25T00:35:11.813Z,99.41
2016-05-25T00:36:11.785Z,98.75
2016-05-25T00:37:11.755Z,98.85
2016-05-25T00:38:11.744Z,99.6
2016-05-25T00:39:11.716Z,99.8
2016-05-25T00:40:11.686Z,99.32
2016-05-25T00:41:11.674Z,99.32
2016-05-25T00:42:11.644Z,99.6
2016-05-25T00:43:11.616Z,98.94
2016-05-25T00:44:11.603Z,99.41
2016-05-25T00:45:11.574Z,99.51
2016-05-25T00:46:11.827Z,99.7
2016-05-25T00:47:11.533Z,98.65
2016-05-25T00:48:11.505Z,98.75
2016-05-25T00:49:11.476Z,99.22
2016-05-25T00:50:11.463Z,98.94
2016-05-25T00:51:11.434Z,99.04
2016-05-25T00:52:11.421Z,99.51
2016-05-25T00:53:11.393Z,99.41
2016-05-25T00:54:11.364Z,98.94
2016-05-25T00:55:11.337Z,99.8
2016-05-25T00:56:11.323Z,99.51
2016-05-25T00:57:11.294Z,99.7
2016-05-25T00:58:11.266Z,99.6
2016-05-25T00:59:11.253Z,99.8
2016-05-25T01:00:11.225Z,99.8
2016-05-25T01:01:11.711Z,99.22
2016-05-25T01:02:11.167Z,99.6
2016-05-25T01:03:11.155Z,98.99
2016-05-25T01:04:11.125Z,98.85
2016-05-25T01:05:11.097Z,99.7
2016-05-25T01:06:11.083Z,98.75
2016-05-25T01:07:11.055Z,98.85
2016-05-25T01:08:11.027Z,99.32
2016-05-25T01:09:11.014Z,99.6
2016-05-25T01:10:10.986Z,99.46
2016-05-25T01:11:10.972Z,98.94
2016-05-25T01:12:10.944Z,98.75
2016-05-25T01:13:10.915Z,98.94
2016-05-25T01:14:10.902Z,98.61
2016-05-25T01:15:10.874Z,99.04
2016-05-25T01:16:10.845Z,98.85
2016-05-25T01:17:10.817Z,98.65
2016-05-25T01:18:10.804Z,98.85
2016-05-25T01:19:10.776Z,99.13
2016-05-25T01:20:10.746Z,99.13
2016-05-25T01:21:10.749Z,99.13
2016-05-25T01:22:10.706Z,98.65
2016-05-25T01:23:10.676Z,98.75
2016-05-25T01:24:10.664Z,98.85
2016-05-25T01:25:10.635Z,99.13
2016-05-25T01:26:10.606Z,99.04
2016-05-25T01:27:10.595Z,98.94
2016-05-25T01:28:10.581Z,99.13
2016-05-25T01:29:10.537Z,99.13
2016-05-25T01:30:10.523Z,98.75
2016-05-25T01:31:10.495Z,98.85
2016-05-25T01:32:10.467Z,98.94
2016-05-25T01:33:10.453Z,99.13
2016-05-25T01:34:10.425Z,98.75
2016-05-25T01:35:10.397Z,99.13
2016-05-25T01:36:10.383Z,98.75
2016-05-25T01:37:10.355Z,98.75
2016-05-25T01:38:10.326Z,98.65
2016-05-25T01:39:10.313Z,98.85
2016-05-25T01:40:10.286Z,98.94
2016-05-25T01:41:10.257Z,99.13
2016-05-25T01:42:10.228Z,98.75
2016-05-25T01:43:10.215Z,98.75
2016-05-25T01:44:10.186Z,99.13
2016-05-25T01:45:10.158Z,98.75
2016-05-25T01:46:10.598Z,98.75
2016-05-25T01:47:10.116Z,98.75
2016-05-25T01:48:10.088Z,99.13
2016-05-25T01:49:10.075Z,99.41
2016-05-25T01:50:10.046Z,99.22
2016-05-25T01:51:10.017Z,99.04
2016-05-25T01:52:10.005Z,98.94
2016-05-25T01:53:09.976Z,99.13
2016-05-25T01:54:09.948Z,98.65
2016-05-25T01:55:09.934Z,98.85
2016-05-25T01:56:09.906Z,98.75
2016-05-25T01:57:09.878Z,99.41
2016-05-25T01:58:09.864Z,98.65
2016-05-25T01:59:09.836Z,98.75
2016-05-25T02:00:09.808Z,98.94
2016-05-25T02:01:09.795Z,98.75
2016-05-25T02:02:09.767Z,99.04
2016-05-25T02:03:09.737Z,99.13
2016-05-25T02:04:09.725Z,98.75
2016-05-25T02:05:09.696Z,99.41
2016-05-25T02:06:09.667Z,99.41
2016-05-25T02:07:09.655Z,99.04
2016-05-25T02:08:09.625Z,99.51
2016-05-25T02:09:09.613Z,99.51
2016-05-25T02:10:09.585Z,99.7
2016-05-25T02:11:09.556Z,99.51
2016-05-25T02:12:09.528Z,99.7
2016-05-25T02:13:09.499Z,99.66
2016-05-25T02:14:09.486Z,99.51
2016-05-25T02:15:09.457Z,99.6
2016-05-25T02:16:10.085Z,99.6
2016-05-25T02:17:09.603Z,99.56
2016-05-25T02:18:09.387Z,99.51
2016-05-25T02:19:09.359Z,99.7
2016-05-25T02:20:09.346Z,99.85
2016-05-25T02:21:09.317Z,99.46
2016-05-25T02:22:09.304Z,99.27
2016-05-25T02:23:09.276Z,99.27
2016-05-25T02:24:09.248Z,99.75
2016-05-25T02:25:09.234Z,98.9
2016-05-25T02:26:09.206Z,98.7
2016-05-25T02:27:09.176Z,99.08
2016-05-25T02:28:09.148Z,98.99
2016-05-25T02:29:09.135Z,99.08
2016-05-25T02:30:09.106Z,98.99
2016-05-25T02:31:09.094Z,98.56
2016-05-25T02:32:09.065Z,98.99
2016-05-25T02:33:09.037Z,99.08
2016-05-25T02:34:09.025Z,99.18
2016-05-25T02:35:08.995Z,98.99
2016-05-25T02:36:08.983Z,98.99
2016-05-25T02:37:08.953Z,98.99
2016-05-25T02:38:08.925Z,98.61
2016-05-25T02:39:08.896Z,98.42
2016-05-25T02:40:08.884Z,98.8
2016-05-25T02:41:08.871Z,98.99
2016-05-25T02:42:08.827Z,98.7
2016-05-25T02:43:08.814Z,98.8
2016-05-25T02:44:08.785Z,98.99
2016-05-25T02:45:08.757Z,99.18
2016-05-25T02:46:08.744Z,99.08
2016-05-25T02:47:08.715Z,98.51
2016-05-25T02:48:08.702Z,98.9
2016-05-25T02:49:08.673Z,99.08
2016-05-25T02:50:08.645Z,98.99
2016-05-25T02:51:08.617Z,98.9
2016-05-25T02:52:08.603Z,99.08
2016-05-25T02:53:08.576Z,98.51
2016-05-25T02:54:08.546Z,99.08
2016-05-25T02:55:08.518Z,98.51
2016-05-25T02:56:08.505Z,98.99
2016-05-25T02:57:08.476Z,98.9
2016-05-25T02:58:08.464Z,98.7
2016-05-25T02:59:08.434Z,99.18
2016-05-25T03:00:08.406Z,98.8
2016-05-25T03:01:08.378Z,98.8
2016-05-25T03:02:08.365Z,98.8
2016-05-25T03:03:08.336Z,98.9
2016-05-25T03:04:08.323Z,98.99
2016-05-25T03:05:08.388Z,98.9
2016-05-25T03:06:08.282Z,98.99
2016-05-25T03:07:08.238Z,98.8
2016-05-25T03:08:08.225Z,98.9
2016-05-25T03:09:08.196Z,99.46
2016-05-25T03:10:08.167Z,98.8
2016-05-25T03:11:08.154Z,99.66
2016-05-25T03:12:08.127Z,99.75
2016-05-25T03:13:08.097Z,98.8
2016-05-25T03:14:08.085Z,99.95
2016-05-25T03:15:08.055Z,99.66
2016-05-25T03:16:08.121Z,99.56
2016-05-25T03:17:08.015Z,99.37
2016-05-25T03:18:07.986Z,99.56
2016-05-25T03:19:07.957Z,99.37
2016-05-25T03:20:07.944Z,99.75
2016-05-25T03:21:07.916Z,98.99
2016-05-25T03:22:07.904Z,98.8
2016-05-25T03:23:07.874Z,98.8
2016-05-25T03:24:07.846Z,99.08
2016-05-25T03:25:07.833Z,98.8
2016-05-25T03:26:07.805Z,98.99
2016-05-25T03:27:07.776Z,99.18
2016-05-25T03:28:07.763Z,99.18
2016-05-25T03:29:07.734Z,99.18
2016-05-25T03:30:07.706Z,98.99
2016-05-25T03:31:07.678Z,98.99
2016-05-25T03:32:07.664Z,98.9
2016-05-25T03:33:07.636Z,98.51
2016-05-25T03:34:07.623Z,99.08
2016-05-25T03:35:07.594Z,98.99
2016-05-25T03:36:07.566Z,98.99
2016-05-25T03:37:07.553Z,99.18
2016-05-25T03:38:07.524Z,99.08
2016-05-25T03:39:07.495Z,99.08
2016-05-25T03:40:07.483Z,98.9
2016-05-25T03:41:07.454Z,98.8
2016-05-25T03:42:07.425Z,98.99
2016-05-25T03:43:07.413Z,98.8
2016-05-25T03:44:07.383Z,98.8
2016-05-25T03:45:07.371Z,99.08
2016-05-25T03:46:07.858Z,99.08
2016-05-25T03:47:07.314Z,99.18
2016-05-25T03:48:07.286Z,99.08
2016-05-25T03:49:07.272Z,98.61
2016-05-25T03:50:07.260Z,98.51
2016-05-25T03:51:07.215Z,98.7
2016-05-25T03:52:07.202Z,98.8
2016-05-25T03:53:07.174Z,98.8
2016-05-25T03:54:07.160Z,98.9
2016-05-25T03:55:07.133Z,98.99
2016-05-25T03:56:07.104Z,98.9
2016-05-25T03:57:07.073Z,99.08
2016-05-25T03:58:07.060Z,98.8
2016-05-25T03:59:07.032Z,99.08
2016-05-25T04:00:07.019Z,98.51
2016-05-25T04:01:06.990Z,98.99
2016-05-25T04:02:06.961Z,98.8
2016-05-25T04:03:06.933Z,98.9
2016-05-25T04:04:06.920Z,98.9
2016-05-25T04:05:06.892Z,98.9
2016-05-25T04:06:06.879Z,98.8
2016-05-25T04:07:06.850Z,98.9
2016-05-25T04:08:06.820Z,98.9
2016-05-25T04:09:06.809Z,98.8
2016-05-25T04:10:06.780Z,98.9
2016-05-25T04:11:06.751Z,98.61
2016-05-25T04:12:06.738Z,99.18
2016-05-25T04:13:06.725Z,98.7
2016-05-25T04:14:06.681Z,98.51
2016-05-25T04:15:06.669Z,98.8
2016-05-25T04:16:06.639Z,98.99
2016-05-25T04:17:06.627Z,99.18
2016-05-25T04:18:06.597Z,98.9
2016-05-25T04:19:06.569Z,98.7
2016-05-25T04:20:06.580Z,99.46
2016-05-25T04:21:06.575Z,98.9
2016-05-25T04:22:06.570Z,99.56
2016-05-25T04:23:06.566Z,99.75
2016-05-25T04:24:06.576Z,99.37
2016-05-25T04:25:06.556Z,99.46
2016-05-25T04:26:06.552Z,99.18
2016-05-25T04:27:06.532Z,99.18
2016-05-25T04:28:06.512Z,99.85
2016-05-25T04:29:06.507Z,99.46
2016-05-25T04:30:06.482Z,99.66
2016-05-25T04:31:06.457Z,99.27
2016-05-25T04:32:06.447Z,99.66
2016-05-25T04:33:06.421Z,99.37
2016-05-25T04:34:06.396Z,99.46
2016-05-25T04:35:06.384Z,99.08
2016-05-25T04:36:06.356Z,99.08
2016-05-25T04:37:06.345Z,99.56
2016-05-25T04:38:06.317Z,99.66
2016-05-25T04:39:06.291Z,99.66
2016-05-25T04:40:08.028Z,98.99
2016-05-25T04:41:06.249Z,99.95
2016-05-25T04:42:06.221Z,99.37
2016-05-25T04:43:06.209Z,99.27
2016-05-25T04:44:06.180Z,99.37
2016-05-25T04:45:06.168Z,99.37
2016-05-25T04:46:06.139Z,99.66
2016-05-25T04:47:06.142Z,98.8
2016-05-25T04:48:06.098Z,98.99
2016-05-25T04:49:06.069Z,99.18
2016-05-25T04:50:06.040Z,98.99
2016-05-25T04:51:06.028Z,98.7
2016-05-25T04:52:05.998Z,98.7
2016-05-25T04:53:05.970Z,98.99
2016-05-25T04:54:05.957Z,98.7
2016-05-25T04:55:05.929Z,99.08
2016-05-25T04:56:05.916Z,98.7
2016-05-25T04:57:05.886Z,99.18
2016-05-25T04:58:05.858Z,99.66
2016-05-25T04:59:05.846Z,99.27
2016-05-25T05:00:05.817Z,99.71
2016-05-25T05:01:05.789Z,99.23
2016-05-25T05:02:05.775Z,99.9
2016-05-25T05:03:05.747Z,99.23
2016-05-25T05:04:05.750Z,98.94
2016-05-25T05:05:05.705Z,99.13
2016-05-25T05:06:05.693Z,99.23
2016-05-25T05:07:05.663Z,99.04
2016-05-25T05:08:05.635Z,98.94
2016-05-25T05:09:05.623Z,98.94
2016-05-25T05:10:05.593Z,99.23
2016-05-25T05:11:05.565Z,99.13
2016-05-25T05:12:05.552Z,98.94
2016-05-25T05:13:05.524Z,98.85
2016-05-25T05:14:05.495Z,98.66
2016-05-25T05:15:05.482Z,98.85
2016-05-25T05:16:05.454Z,98.27
2016-05-25T05:17:05.441Z,98.47
2016-05-25T05:18:05.412Z,98.37
2016-05-25T05:19:05.400Z,98.75
2016-05-25T05:20:05.370Z,98.08
2016-05-25T05:21:05.343Z,99.04
2016-05-25T05:22:05.329Z,98.27
2016-05-25T05:23:05.301Z,98.66
2016-05-25T05:24:05.272Z,98.47
2016-05-25T05:25:05.259Z,98.47
2016-05-25T05:26:05.231Z,98.27
2016-05-25T05:27:05.218Z,98.37
2016-05-25T05:28:05.189Z,97.8
2016-05-25T05:29:05.177Z,97.71
2016-05-25T05:30:05.147Z,97.8
2016-05-25T05:31:05.119Z,98.27
2016-05-25T05:32:05.106Z,98.08
2016-05-25T05:33:05.078Z,98.37
2016-05-25T05:34:05.065Z,98.47
2016-05-25T05:35:05.036Z,98.08
2016-05-25T05:36:05.024Z,98.18
2016-05-25T05:37:04.995Z,98.18
2016-05-25T05:38:04.966Z,98.42
2016-05-25T05:39:04.954Z,98.47
2016-05-25T05:40:04.924Z,97.99
2016-05-25T05:41:04.896Z,98.56
2016-05-25T05:42:04.883Z,98.37
2016-05-25T05:43:04.854Z,97.99
2016-05-25T05:44:04.842Z,98.66
2016-05-25T05:45:04.828Z,98.47
2016-05-25T05:46:07.191Z,98.27
2016-05-25T05:47:04.771Z,98.37
2016-05-25T05:48:04.743Z,98.42
2016-05-25T05:49:04.731Z,98.18
2016-05-25T05:50:04.701Z,98.47
2016-05-25T05:51:04.689Z,98.61
2016-05-25T05:52:04.660Z,97.8
2016-05-25T05:53:04.631Z,98.61
2016-05-25T05:54:04.634Z,98.52
2016-05-25T05:55:04.589Z,97.94
2016-05-25T05:56:04.578Z,98.03
2016-05-25T05:57:04.548Z,98.23
2016-05-25T05:58:04.520Z,97.66
2016-05-25T05:59:04.508Z,98.32
2016-05-25T06:00:04.494Z,97.85
2016-05-25T06:01:04.481Z,98.08
2016-05-25T06:02:04.452Z,97.75
2016-05-25T06:03:04.502Z,97.85
2016-05-25T06:04:04.396Z,97.94
2016-05-25T06:05:04.382Z,97.94
2016-05-25T06:06:04.354Z,98.03
2016-05-25T06:07:04.325Z,98.71
2016-05-25T06:08:04.312Z,98.52
2016-05-25T06:09:04.285Z,98.42
2016-05-25T06:10:04.255Z,97.75
2016-05-25T06:11:04.243Z,98.13
2016-05-25T06:12:04.214Z,98.03
2016-05-25T06:13:04.201Z,98.52
2016-05-25T06:14:04.173Z,98.42
2016-05-25T06:15:04.159Z,98.61
2016-05-25T06:16:04.131Z,98.13
2016-05-25T06:17:04.118Z,98.03
2016-05-25T06:18:04.089Z,97.94
2016-05-25T06:19:04.062Z,98.23
2016-05-25T06:20:04.048Z,98.32
2016-05-25T06:21:04.019Z,98.13
2016-05-25T06:22:04.007Z,98.13
2016-05-25T06:23:03.978Z,98.13
2016-05-25T06:24:03.950Z,98.03
2016-05-25T06:25:03.937Z,98.32
2016-05-25T06:26:03.908Z,98.13
2016-05-25T06:27:03.895Z,98.42
2016-05-25T06:28:03.866Z,98.13
2016-05-25T06:29:03.916Z,97.94
2016-05-25T06:30:03.824Z,98.13
2016-05-25T06:31:03.811Z,98.13
2016-05-25T06:32:03.861Z,98.13
2016-05-25T06:33:03.755Z,98.13
2016-05-25T06:34:03.742Z,98.13
2016-05-25T06:35:03.714Z,98.13
2016-05-25T06:36:03.700Z,98.13
2016-05-25T06:37:03.672Z,98.13
2016-05-25T06:38:03.691Z,97.27
2016-05-25T06:39:03.630Z,97.18
2016-05-25T06:40:03.618Z,97.08
2016-05-25T06:41:03.588Z,97.37
2016-05-25T06:42:03.561Z,97.27
2016-05-25T06:43:03.547Z,97.56
2016-05-25T06:44:03.519Z,97.27
2016-05-25T06:45:03.506Z,97.27
2016-05-25T06:46:03.477Z,97.18
2016-05-25T06:47:03.464Z,97.18
2016-05-25T06:48:03.435Z,96.89
2016-05-25T06:49:03.407Z,97.18
2016-05-25T06:50:03.394Z,97.18
2016-05-25T06:51:03.366Z,96.98
2016-05-25T06:52:03.353Z,97.08
2016-05-25T06:53:03.323Z,97.37
2016-05-25T06:54:03.312Z,97.13
2016-05-25T06:55:03.283Z,96.94
2016-05-25T06:56:03.254Z,97.89
2016-05-25T06:57:03.242Z,98.08
2016-05-25T06:58:03.212Z,98.32
2016-05-25T06:59:03.200Z,98.32
2016-05-25T07:00:03.171Z,98.03
2016-05-25T07:01:03.142Z,98.42
2016-05-25T07:02:03.130Z,98.08
2016-05-25T07:03:03.101Z,98.52
2016-05-25T07:04:03.088Z,98.52
2016-05-25T07:05:03.060Z,98.37
2016-05-25T07:06:03.063Z,98.27
2016-05-25T07:07:03.018Z,98.61
2016-05-25T07:08:03.005Z,98.61
2016-05-25T07:09:03.008Z,98.32
2016-05-25T07:10:02.963Z,98.61
2016-05-25T07:11:02.935Z,98.42
2016-05-25T07:12:02.907Z,98.52
2016-05-25T07:13:02.877Z,98.99
2016-05-25T07:14:02.865Z,99.18
2016-05-25T07:15:02.837Z,98.9
2016-05-25T07:16:02.823Z,98.99
2016-05-25T07:17:02.826Z,98.9
2016-05-25T07:18:02.782Z,99.08
2016-05-25T07:19:02.754Z,99.08
2016-05-25T07:20:02.740Z,98.99
2016-05-25T07:21:02.728Z,99.04
2016-05-25T07:22:02.699Z,99.04
2016-05-25T07:23:02.702Z,99.14
2016-05-25T07:24:02.657Z,99.04
2016-05-25T07:25:02.645Z,98.37
2016-05-25T07:26:02.616Z,98.57
2016-05-25T07:27:02.603Z,98.57
2016-05-25T07:28:02.575Z,97.99
2016-05-25T07:29:02.561Z,98.33
2016-05-25T07:30:02.533Z,98.04
2016-05-25T07:31:02.520Z,97.85
2016-05-25T07:32:02.492Z,97.85
2016-05-25T07:33:02.478Z,98.23
2016-05-25T07:34:02.466Z,97.47
2016-05-25T07:35:02.437Z,97.47
2016-05-25T07:36:02.424Z,97.37
2016-05-25T07:37:02.397Z,97.42
2016-05-25T07:38:02.492Z,97.04
2016-05-25T07:39:02.355Z,98.38
2016-05-25T07:40:02.341Z,98.09
2016-05-25T07:41:02.328Z,98.38
2016-05-25T07:42:02.299Z,98.04
2016-05-25T07:43:02.287Z,97.37
2016-05-25T07:44:02.274Z,97.56
2016-05-25T07:45:02.246Z,97.08
2016-05-25T07:46:02.232Z,97.28
2016-05-25T07:47:02.219Z,97.13
2016-05-25T07:48:02.191Z,97.33
2016-05-25T07:49:02.178Z,97.33
2016-05-25T07:50:02.166Z,96.75
2016-05-25T07:51:02.152Z,96.37
2016-05-25T07:52:02.124Z,96.61
2016-05-25T07:53:02.110Z,96.42
2016-05-25T07:54:02.098Z,95.65
2016-05-25T07:55:02.085Z,95.75
2016-05-25T07:56:02.057Z,95.07
2016-05-25T07:57:02.043Z,95.36
2016-05-25T07:58:02.030Z,94.69
2016-05-25T07:59:02.018Z,95.07
2016-05-25T08:00:02.004Z,94.31
2016-05-25T08:01:01.975Z,94.21
2016-05-25T08:02:01.963Z,94.07
2016-05-25T08:03:01.950Z,93.64
2016-05-25T08:04:01.937Z,93.45
2016-05-25T08:05:01.909Z,92.87
2016-05-25T08:06:01.895Z,92.68
2016-05-25T08:07:01.883Z,92.11
2016-05-25T08:08:01.870Z,92.4
2016-05-25T08:09:01.841Z,92.68
2016-05-25T08:10:01.828Z,93.21
2016-05-25T08:11:01.816Z,92.92
2016-05-25T08:12:01.803Z,93.12
2016-05-25T08:13:01.774Z,93.3
2016-05-25T08:14:01.760Z,93.59
2016-05-25T08:15:01.748Z,93.5
2016-05-25T08:16:01.735Z,93.4
2016-05-25T08:17:01.707Z,93.79
2016-05-25T08:18:01.694Z,94.07
2016-05-25T08:19:01.680Z,93.59
2016-05-25T08:20:01.652Z,94.55
2016-05-25T08:21:01.640Z,94.55
2016-05-25T08:22:01.626Z,94.45
2016-05-25T08:23:01.598Z,95.03
2016-05-25T08:24:01.585Z,94.74
2016-05-25T08:25:01.571Z,94.36
2016-05-25T08:26:01.543Z,95.03
2016-05-25T08:27:01.530Z,95.12
2016-05-25T08:28:01.517Z,95.41
2016-05-25T08:29:01.536Z,94.74
2016-05-25T08:30:01.476Z,94.74
2016-05-25T08:31:01.462Z,94.84
2016-05-25T08:32:01.653Z,94.69
2016-05-25T08:33:01.422Z,94.69
2016-05-25T08:34:01.409Z,94.93
2016-05-25T08:35:01.380Z,93.3
2016-05-25T08:36:01.383Z,93.88
2016-05-25T08:37:01.353Z,94.65
2016-05-25T08:38:03.014Z,94.93
2016-05-25T08:39:01.313Z,94.89
2016-05-25T08:40:01.347Z,95.36
2016-05-25T08:41:01.286Z,95.36
2016-05-25T08:42:01.274Z,95.17
2016-05-25T08:43:01.245Z,95.41
2016-05-25T08:44:01.232Z,95.03
2016-05-25T08:45:01.219Z,95.03
2016-05-25T08:46:01.207Z,93.59
2016-05-25T08:47:01.193Z,94.35
2016-05-25T08:48:01.165Z,94.35
2016-05-25T08:49:01.152Z,93.98
2016-05-25T08:50:01.138Z,94.35
2016-05-25T08:51:01.110Z,93.88
2016-05-25T08:52:01.098Z,92.73
2016-05-25T08:53:01.413Z,93.49
2016-05-25T08:54:01.071Z,93.59
2016-05-25T08:55:01.059Z,93.21
2016-05-25T08:56:01.030Z,93.3
2016-05-25T08:57:01.017Z,93.69
2016-05-25T08:58:01.004Z,93.3
2016-05-25T08:59:00.992Z,93.21
2016-05-25T09:00:00.979Z,92.25
2016-05-25T09:01:00.950Z,92.54
2016-05-25T09:02:00.953Z,92.63
2016-05-25T09:03:00.924Z,92.15
2016-05-25T09:04:00.911Z,92.92
2016-05-25T09:05:00.897Z,93.59
2016-05-25T09:06:00.886Z,93.4
2016-05-25T09:07:00.872Z,92.82
2016-05-25T09:08:00.844Z,92.73
2016-05-25T09:09:00.831Z,92.15
2016-05-25T09:10:00.817Z,92.44
2016-05-25T09:11:00.789Z,92.44
2016-05-25T09:12:00.777Z,93.02
2016-05-25T09:13:00.764Z,92.25
2016-05-25T09:14:00.750Z,92.25
2016-05-25T09:15:00.738Z,92.15
2016-05-25T09:16:00.709Z,92.92
2016-05-25T09:17:01.166Z,92.35
2016-05-25T09:18:00.729Z,92.63
2016-05-25T09:19:00.686Z,92.25
2016-05-25T09:20:00.844Z,92.73
2016-05-25T09:21:00.629Z,92.63
2016-05-25T09:22:00.616Z,93.3
2016-05-25T09:23:00.603Z,92.25
2016-05-25T09:24:00.590Z,92.11
2016-05-25T09:25:00.562Z,92.11
2016-05-25T09:26:00.548Z,92.87
2016-05-25T09:27:00.535Z,93.54
2016-05-25T09:28:00.522Z,93.16
2016-05-25T09:29:00.493Z,93.54
2016-05-25T09:30:00.481Z,93.35
2016-05-25T09:31:00.453Z,93.35
2016-05-25T09:32:00.456Z,93.64
2016-05-25T09:33:00.520Z,93.83
2016-05-25T09:34:00.398Z,94.12
2016-05-25T09:35:00.464Z,94.12
2016-05-25T09:36:00.372Z,94.45
2016-05-25T09:37:00.359Z,94.4
2016-05-25T09:38:00.330Z,94.26
2016-05-25T09:39:00.318Z,93.98
2016-05-25T09:40:00.305Z,93.88
2016-05-25T09:41:00.291Z,93.98
2016-05-25T09:42:00.264Z,93.98
2016-05-25T09:43:00.251Z,94.35
2016-05-25T09:44:00.238Z,94.35
2016-05-25T09:45:00.224Z,93.49
2016-05-25T09:46:00.196Z,93.49
2016-05-25T09:47:00.183Z,93.78
2016-05-25T09:48:00.499Z,93.3
2016-05-25T09:49:00.157Z,93.02
2016-05-25T09:50:00.129Z,93.35
2016-05-25T09:51:00.116Z,93.26
2016-05-25T09:52:00.102Z,93.54
2016-05-25T09:53:01.183Z,94.31
2016-05-25T09:54:00.077Z,93.49
2016-05-25T09:55:00.063Z,93.78
2016-05-25T09:56:00.035Z,93.4
2016-05-25T09:57:00.022Z,93.44
2016-05-25T09:58:00.010Z,92.86
2016-05-25T09:58:59.996Z,92.77
2016-05-25T09:59:59.983Z,92.86
2016-05-25T10:00:59.970Z,92.43
2016-05-25T10:01:59.957Z,92.43
2016-05-25T10:02:59.945Z,91.66
2016-05-25T10:04:00.306Z,91.96
2016-05-25T10:05:00.169Z,91.66
2016-05-25T10:06:00.234Z,91.13
2016-05-25T10:06:59.877Z,91.52
2016-05-25T10:07:59.864Z,91.81
2016-05-25T10:08:59.851Z,90.94
2016-05-25T10:09:59.839Z,91.13
2016-05-25T10:10:59.825Z,90.99
2016-05-25T10:11:59.828Z,89.93
2016-05-25T10:12:59.800Z,90.6
2016-05-25T10:13:59.818Z,89.93
2016-05-25T10:14:59.774Z,89.98
2016-05-25T10:15:59.761Z,89.36
2016-05-25T10:17:00.123Z,89.5
2016-05-25T10:17:59.736Z,89.3
2016-05-25T10:18:59.722Z,88.92
2016-05-25T10:19:59.709Z,89.26
2016-05-25T10:20:59.696Z,89.64
2016-05-25T10:21:59.683Z,88.87
2016-05-25T10:22:59.671Z,89.4
2016-05-25T10:23:59.657Z,89.54
2016-05-25T10:24:59.645Z,89.69
2016-05-25T10:25:59.632Z,89.98
2016-05-25T10:26:59.618Z,89.69
2016-05-25T10:27:59.607Z,89.59
2016-05-25T10:28:59.593Z,89.11
2016-05-25T10:29:59.579Z,89.3
2016-05-25T10:30:59.567Z,89.3
2016-05-25T10:31:59.554Z,89.11
2016-05-25T10:32:59.526Z,89.5
2016-05-25T10:33:59.528Z,89.4
2016-05-25T10:34:59.515Z,89.3
2016-05-25T10:35:59.596Z,88.92
2016-05-25T10:36:59.473Z,89.3
2016-05-25T10:37:59.461Z,88.34
2016-05-25T10:38:59.448Z,88.34
2016-05-25T10:39:59.434Z,89.11
2016-05-25T10:41:00.422Z,89.11
2016-05-25T10:41:59.409Z,89.01
2016-05-25T10:42:59.397Z,89.4
2016-05-25T10:43:59.383Z,88.73
2016-05-25T10:44:59.369Z,89.3
2016-05-25T10:45:59.357Z,89.4
2016-05-25T10:46:59.360Z,89.11
2016-05-25T10:47:59.331Z,89.01
2016-05-25T10:48:59.319Z,89.11
2016-05-25T10:49:59.305Z,89.11
2016-05-25T10:50:59.293Z,88.53
2016-05-25T10:51:59.280Z,87.76
2016-05-25T10:52:59.283Z,87.76
2016-05-25T10:53:59.394Z,88.63
2016-05-25T10:54:59.241Z,89.01
2016-05-25T10:55:59.228Z,89.01
2016-05-25T10:56:59.215Z,88.92
2016-05-25T10:57:59.202Z,88.63
2016-05-25T10:58:59.189Z,89.4
2016-05-25T10:59:59.176Z,88.82
2016-05-25T11:00:59.163Z,89.01
2016-05-25T11:01:59.165Z,88.82
2016-05-25T11:02:59.138Z,89.11
2016-05-25T11:03:59.124Z,89.01
2016-05-25T11:04:59.112Z,89.59
2016-05-25T11:05:59.099Z,89.98
2016-05-25T11:06:59.086Z,90.17
2016-05-25T11:07:59.073Z,90.02
2016-05-25T11:08:59.059Z,90.02
2016-05-25T11:09:59.047Z,90.73
2016-05-25T11:10:59.034Z,90.35
2016-05-25T11:11:59.021Z,90.93
2016-05-25T11:12:59.008Z,90.78
2016-05-25T11:13:59.010Z,90.78
2016-05-25T11:14:58.982Z,90.16
2016-05-25T11:15:58.969Z,90.25
2016-05-25T11:16:58.972Z,89.81
2016-05-25T11:17:58.959Z,88.85
2016-05-25T11:18:58.947Z,88.95
2016-05-25T11:19:58.949Z,88.95
2016-05-25T11:20:58.935Z,88.08
2016-05-25T11:21:58.923Z,88.27
2016-05-25T11:22:59.004Z,87.64
2016-05-25T11:23:58.882Z,87.35
2016-05-25T11:24:58.899Z,87.45
2016-05-25T11:25:58.872Z,86.96
2016-05-25T11:26:58.874Z,86.87
2016-05-25T11:27:58.845Z,86.91
2016-05-25T11:28:58.848Z,87.49
2016-05-25T11:29:58.835Z,86.52
2016-05-25T11:30:58.821Z,86.08
2016-05-25T11:31:58.809Z,85.75
2016-05-25T11:32:58.812Z,85.41
2016-05-25T11:33:58.799Z,84.79
2016-05-25T11:34:58.787Z,85.66
2016-05-25T11:35:58.773Z,84.5
2016-05-25T11:36:58.759Z,84.21
2016-05-25T11:37:58.763Z,85.08
2016-05-25T11:38:58.750Z,85.08
2016-05-25T11:39:58.737Z,85.08
2016-05-25T11:40:58.818Z,85.13
2016-05-25T11:41:58.711Z,85.13
2016-05-25T11:42:58.714Z,84.94
2016-05-25T11:43:58.716Z,85.13
2016-05-25T11:44:58.688Z,85.23
2016-05-25T11:45:58.675Z,84.84
2016-05-25T11:46:58.662Z,84.21
2016-05-25T11:47:58.665Z,84.84
2016-05-25T11:48:58.652Z,83.59
2016-05-25T11:49:58.639Z,84.17
2016-05-25T11:50:58.625Z,84.03
2016-05-25T11:51:58.613Z,82.68
2016-05-25T11:52:58.616Z,82.87
2016-05-25T11:53:58.602Z,83.8
2016-05-25T11:54:58.590Z,83.61
2016-05-25T11:55:58.577Z,83.61
2016-05-25T11:56:58.563Z,83.03
2016-05-25T11:57:58.566Z,84.38
2016-05-25T11:58:58.538Z,84.18
2016-05-25T11:59:58.541Z,84.95
2016-05-25T12:00:58.527Z,85.05
2016-05-25T12:01:58.515Z,86.21
2016-05-25T12:02:58.502Z,85.82
2016-05-25T12:03:58.490Z,84.76
2016-05-25T12:04:58.476Z,84.47
2016-05-25T12:05:58.462Z,85.24
2016-05-25T12:06:58.450Z,86.07
2016-05-25T12:07:58.437Z,85.87
2016-05-25T12:08:58.424Z,86.11
2016-05-25T12:09:58.427Z,86.88
2016-05-25T12:10:58.414Z,86.88
2016-05-25T12:11:58.400Z,86.59
2016-05-25T12:12:58.389Z,86.78
2016-05-25T12:13:58.391Z,87.26
2016-05-25T12:14:58.362Z,87.4
2016-05-25T12:15:58.364Z,87.88
2016-05-25T12:16:58.336Z,88.79
2016-05-25T12:17:58.339Z,89.03
2016-05-25T12:18:58.326Z,88.79
2016-05-25T12:19:58.361Z,87.53
2016-05-25T12:20:58.300Z,87.48
2016-05-25T12:21:58.288Z,87.38
2016-05-25T12:22:58.291Z,86.13
2016-05-25T12:23:58.277Z,85.84
2016-05-25T12:24:58.264Z,85.49
2016-05-25T12:25:58.266Z,85.11
2016-05-25T12:26:58.254Z,84.47
2016-05-25T12:27:58.241Z,83.89
2016-05-25T12:28:58.244Z,83.7
2016-05-25T12:29:58.230Z,83.12
2016-05-25T12:30:58.233Z,82.35
2016-05-25T12:31:58.579Z,82.45
2016-05-25T12:32:58.207Z,82.1
2016-05-25T12:33:58.195Z,81.71
2016-05-25T12:34:58.182Z,81.67
2016-05-25T12:35:58.184Z,81.29
2016-05-25T12:36:58.171Z,79.45
2016-05-25T12:37:58.784Z,80.57
2016-05-25T12:38:58.162Z,79.12
2016-05-25T12:39:58.148Z,79.31
2016-05-25T12:40:58.135Z,80.24
2016-05-25T12:41:58.122Z,80.72
2016-05-25T12:42:59.219Z,80.43
2016-05-25T12:43:58.112Z,78.02
2016-05-25T12:44:58.100Z,77.3
2016-05-25T12:45:58.086Z,73.73
2016-05-25T12:46:58.089Z,75.43
2016-05-25T12:47:58.076Z,77.51
2016-05-25T12:48:58.064Z,78.52
2016-05-25T12:49:58.051Z,77.61
2016-05-25T12:50:58.036Z,77.61
2016-05-25T12:51:58.164Z,77.61
2016-05-25T12:52:58.027Z,76.93
2016-05-25T12:53:58.014Z,76.13
2016-05-25T12:54:58.002Z,77.86
2016-05-25T12:55:57.988Z,79.21